| time (UTC) | temp F | wind direction | speed MPH | gust MPH | rain 1hr in | rain 24hr in | rain mn in | humidity % | barometer mb |
| 20260903143049 | 64 | 50 | 8.0 | 12.0 | 0.00 | 0.00 | 0.00 | 64 | 1004.5 |
| 20260903141548 | 65 | 40 | 4.0 | 10.0 | 0.00 | 0.00 | 0.00 | 63 | 1004.5 |
| 20260903140045 | 65 | 41 | 4.0 | 9.0 | 0.00 | 0.00 | 0.00 | 59 | 1004.6 |
| 20260903134542 | 64 | 62 | 4.0 | 8.0 | 0.00 | 0.00 | 0.00 | 54 | 1004.7 |
| 20260903133049 | 64 | 42 | 3.0 | 12.0 | 0.00 | 0.00 | 0.00 | 52 | 1004.8 |
| 20260903131537 | 64 | 35 | 4.0 | 11.0 | 0.00 | 0.00 | 0.00 | 52 | 1005.1 |
| 20260903130035 | 64 | 75 | 7.0 | 11.0 | 0.00 | 0.00 | 0.00 | 51 | 1005.2 |
| 20260903124536 | 64 | 54 | 5.0 | 10.0 | 0.00 | 0.00 | 0.00 | 50 | 1005.1 |
| 20260903123035 | 65 | 33 | 4.0 | 10.0 | 0.00 | 0.00 | 0.00 | 52 | 1005.3 |
| 20260903121528 | 65 | 51 | 3.0 | 9.0 | 0.00 | 0.00 | 0.00 | 52 | 1005.5 |
| 20260903120029 | 64 | 43 | 6.0 | 14.0 | 0.00 | 0.00 | 0.00 | 53 | 1005.7 |
| 20260903114524 | 64 | 49 | 6.0 | 13.0 | 0.00 | 0.00 | 0.00 | 52 | 1005.8 |
| 20260903113023 | 64 | 47 | 5.0 | 11.0 | 0.00 | 0.00 | 0.00 | 56 | 1005.9 |
| 20260903111528 | 61 | 28 | 5.0 | 10.0 | 0.00 | 0.00 | 0.00 | 58 | 1006.0 |
| 20260903110016 | 60 | 59 | 5.0 | 11.0 | 0.00 | 0.00 | 0.00 | 58 | 1006.2 |
| 20260903104516 | 60 | 60 | 9.0 | 13.0 | 0.00 | 0.00 | 0.00 | 59 | 1006.3 |
| 20260903103013 | 60 | 68 | 7.0 | 13.0 | 0.00 | 0.00 | 0.00 | 60 | 1006.3 |
| 20260903101509 | 58 | 78 | 5.0 | 13.0 | 0.00 | 0.00 | 0.00 | 62 | 1006.4 |
| 20260903100010 | 58 | 59 | 6.0 | 14.0 | 0.00 | 0.00 | 0.00 | 63 | 1006.4 |
| 20260903094508 | 58 | 70 | 8.0 | 17.0 | 0.00 | 0.00 | 0.00 | 61 | 1006.4 |
| 20260903093008 | 59 | 66 | 7.0 | 17.0 | 0.00 | 0.00 | 0.00 | 60 | 1006.4 |
| 20260903091504 | 59 | 17 | 11.0 | 18.0 | 0.00 | 0.00 | 0.00 | 62 | 1006.7 |
| 20260903090004 | 59 | 51 | 10.0 | 18.0 | 0.00 | 0.00 | 0.00 | 62 | 1006.7 |
| 20260903084501 | 58 | 56 | 8.0 | 16.0 | 0.00 | 0.00 | 0.00 | 63 | 1006.8 |
| 20260903083057 | 58 | 68 | 7.0 | 16.0 | 0.00 | 0.00 | 0.00 | 64 | 1006.8 |
| 20260903081554 | 57 | 62 | 9.0 | 19.0 | 0.00 | 0.00 | 0.00 | 65 | 1006.9 |
| 20260903080050 | 56 | 84 | 8.0 | 16.0 | 0.00 | 0.00 | 0.00 | 67 | 1006.8 |
| 20260903074549 | 56 | 53 | 8.0 | 14.0 | 0.00 | 0.00 | 0.00 | 68 | 1007.0 |
| 20260903073047 | 56 | 73 | 7.0 | 21.0 | 0.00 | 0.00 | 0.00 | 69 | 1007.0 |
| 20260903071541 | 55 | 76 | 12.0 | 21.0 | 0.00 | 0.00 | 0.00 | 69 | 1007.0 |
| 20260903070043 | 54 | 69 | 8.0 | 17.0 | 0.00 | 0.00 | 0.00 | 71 | 1006.9 |
| 20260903064535 | 54 | 85 | 13.0 | 22.0 | 0.00 | 0.00 | 0.00 | 71 | 1007.0 |
| 20260903063032 | 53 | 49 | 9.0 | 17.0 | 0.00 | 0.00 | 0.00 | 72 | 1007.1 |
| 20260903061544 | 53 | 56 | 12.0 | 21.0 | 0.00 | 0.00 | 0.00 | 71 | 1007.2 |
| 20260903060032 | 53 | 47 | 9.0 | 16.0 | 0.00 | 0.00 | 0.00 | 72 | 1007.2 |
| 20260903054528 | 52 | 80 | 9.0 | 14.0 | 0.00 | 0.01 | 0.00 | 75 | 1007.2 |
| 20260903053026 | 51 | 66 | 5.0 | 9.0 | 0.00 | 0.01 | 0.00 | 80 | 1007.3 |
| 20260903051527 | 50 | 31 | 3.0 | 8.0 | 0.00 | 0.01 | 0.00 | 81 | 1007.2 |
| 20260903050026 | 50 | 14 | 3.0 | 7.0 | 0.00 | 0.01 | 0.00 | 82 | 1007.2 |
| 20260903044525 | 50 | 39 | 3.0 | 10.0 | 0.00 | 0.01 | 0.00 | 81 | 1007.3 |
| 20260903043023 | 49 | 59 | 6.0 | 11.0 | 0.00 | 0.01 | 0.00 | 82 | 1007.2 |
| 20260903041526 | 49 | 52 | 4.0 | 10.0 | 0.00 | 0.01 | 0.00 | 82 | 1007.3 |
| 20260903040020 | 49 | 43 | 4.0 | 10.0 | 0.00 | 0.01 | 0.00 | 82 | 1007.3 |
| 20260903034519 | 50 | 33 | 4.0 | 10.0 | 0.00 | 0.01 | 0.00 | 82 | 1007.3 |
| 20260903033015 | 50 | 57 | 6.0 | 10.0 | 0.00 | 0.01 | 0.00 | 82 | 1007.3 |
| 20260903031514 | 50 | 55 | 6.0 | 11.0 | 0.00 | 0.01 | 0.00 | 82 | 1007.2 |
| 20260903030011 | 50 | 40 | 7.0 | 12.0 | 0.00 | 0.01 | 0.00 | 82 | 1007.2 |
| 20260903024509 | 51 | 64 | 7.0 | 12.0 | 0.00 | 0.01 | 0.00 | 82 | 1007.3 |
| 20260903023006 | 51 | 44 | 10.0 | 14.0 | 0.00 | 0.01 | 0.00 | 82 | 1007.3 |
| 20260903021507 | 51 | 69 | 6.0 | 13.0 | 0.00 | 0.01 | 0.00 | 82 | 1007.3 |
| 20260903020003 | 50 | 59 | 5.0 | 11.0 | 0.00 | 0.01 | 0.00 | 82 | 1007.3 |
| 20260903014501 | 50 | 66 | 5.0 | 0.0 | 0.00 | 0.00 | 0.00 | 82 | 1007.3 |
| 20260903013103 | 50 | 45 | 3.0 | 7.0 | 0.00 | 0.01 | 0.00 | 82 | 1007.5 |
| 20260903011609 | 50 | 46 | 2.0 | 9.0 | 0.00 | 0.01 | 0.00 | 82 | 1007.6 |
| 20260903010116 | 51 | 51 | 8.0 | 11.0 | 0.00 | 0.01 | 0.00 | 82 | 1007.5 |
| 20260903004555 | 51 | 43 | 8.0 | 12.0 | 0.00 | 0.01 | 0.00 | 82 | 1007.5 |
| 20260903003053 | 51 | 37 | 6.0 | 12.0 | 0.00 | 0.01 | 0.00 | 82 | 1007.6 |
| 20260903001551 | 51 | 48 | 5.0 | 11.0 | 0.00 | 0.01 | 0.00 | 82 | 1007.7 |
| 20260903000049 | 51 | 44 | 4.0 | 11.0 | 0.00 | 0.01 | 0.00 | 82 | 1007.7 |
| 20260902234547 | 51 | 43 | 5.0 | 9.0 | 0.00 | 0.01 | 0.00 | 82 | 1007.7 |
| 20260902233044 | 50 | 47 | 2.0 | 6.0 | 0.00 | 0.01 | 0.00 | 82 | 1007.8 |
| 20260902231551 | 51 | 55 | 4.0 | 7.0 | 0.00 | 0.01 | 0.00 | 82 | 1007.9 |
| 20260902230039 | 50 | 47 | 2.0 | 5.0 | 0.00 | 0.01 | 0.00 | 82 | 1008.0 |
| 20260902224551 | 50 | 50 | 0.0 | 4.0 | 0.00 | 0.01 | 0.00 | 81 | 1008.1 |
| 20260902223046 | 51 | 46 | 0.0 | 3.0 | 0.00 | 0.01 | 0.00 | 81 | 1008.1 |
| 20260902221537 | 52 | 33 | 0.0 | 4.0 | 0.00 | 0.01 | 0.00 | 79 | 1008.1 |
| 20260902220047 | 53 | 56 | 3.0 | 8.0 | 0.00 | 0.01 | 0.00 | 78 | 1008.2 |
| 20260902214526 | 53 | 52 | 6.0 | 14.0 | 0.00 | 0.01 | 0.01 | 78 | 1008.2 |
| 20260902213023 | 52 | 45 | 3.0 | 5.0 | 0.00 | 0.01 | 0.01 | 78 | 1008.2 |
| 20260902211526 | 54 | 47 | 3.0 | 9.0 | 0.00 | 0.01 | 0.01 | 75 | 1008.1 |
| 20260902210023 | 54 | 59 | 6.0 | 11.0 | 0.00 | 0.01 | 0.01 | 75 | 1008.2 |
| 20260902204524 | 53 | 34 | 3.0 | 7.0 | 0.00 | 0.01 | 0.01 | 76 | 1008.1 |
| 20260902203020 | 55 | 46 | 2.0 | 7.0 | 0.00 | 0.01 | 0.01 | 72 | 1008.1 |
| 20260902201538 | 56 | 57 | 4.0 | 8.0 | 0.00 | 0.01 | 0.01 | 70 | 1007.9 |
| 20260902200019 | 56 | 45 | 4.0 | 8.0 | 0.00 | 0.01 | 0.01 | 70 | 1008.0 |
| 20260902194529 | 56 | 55 | 4.0 | 8.0 | 0.00 | 0.01 | 0.01 | 70 | 1008.0 |
| 20260902193035 | 56 | 31 | 2.0 | 4.0 | 0.00 | 0.01 | 0.01 | 69 | 1008.0 |
| 20260902191519 | 56 | 47 | 4.0 | 7.0 | 0.00 | 0.01 | 0.01 | 68 | 1008.0 |
| 20260902190016 | 56 | 35 | 2.0 | 6.0 | 0.00 | 0.01 | 0.01 | 66 | 1007.9 |
| 20260902184517 | 57 | 43 | 1.0 | 5.0 | 0.00 | 0.01 | 0.01 | 64 | 1007.8 |
| 20260902183020 | 59 | 54 | 3.0 | 6.0 | 0.00 | 0.01 | 0.01 | 61 | 1007.7 |
| 20260902181513 | 60 | 60 | 2.0 | 7.0 | 0.00 | 0.01 | 0.01 | 60 | 1007.6 |
| 20260902180012 | 60 | 59 | 4.0 | 9.0 | 0.00 | 0.01 | 0.01 | 58 | 1007.6 |
| 20260902174512 | 61 | 78 | 5.0 | 12.0 | 0.00 | 0.01 | 0.01 | 56 | 1007.5 |
| 20260902173015 | 62 | 80 | 5.0 | 13.0 | 0.00 | 0.01 | 0.01 | 55 | 1007.4 |
| 20260902171510 | 63 | 50 | 6.0 | 13.0 | 0.00 | 0.01 | 0.01 | 55 | 1007.4 |
| 20260902170008 | 63 | 60 | 5.0 | 11.0 | 0.00 | 0.01 | 0.01 | 55 | 1007.4 |
| 20260902164507 | 64 | 73 | 6.0 | 12.0 | 0.00 | 0.01 | 0.01 | 55 | 1007.2 |
| 20260902163005 | 64 | 72 | 3.0 | 9.0 | 0.00 | 0.01 | 0.01 | 54 | 1007.2 |
| 20260902161505 | 64 | 55 | 2.0 | 9.0 | 0.00 | 0.01 | 0.01 | 54 | 1007.3 |
| 20260902160006 | 65 | 52 | 5.0 | 14.0 | 0.00 | 0.01 | 0.01 | 52 | 1007.2 |
| 20260902154505 | 66 | 54 | 9.0 | 15.0 | 0.00 | 0.01 | 0.01 | 49 | 1007.3 |
| 20260902153004 | 66 | 36 | 8.0 | 17.0 | 0.00 | 0.01 | 0.01 | 47 | 1007.3 |
| 20260902151600 | 67 | 93 | 10.0 | 16.0 | 0.00 | 0.01 | 0.01 | 46 | 1007.4 |
| 20260902150100 | 68 | 73 | 7.0 | 15.0 | 0.00 | 0.01 | 0.01 | 46 | 1007.5 |
| 20260902144603 | 68 | 77 | 7.0 | 15.0 | 0.00 | 0.01 | 0.01 | 47 | 1007.4 |